createdAt,value
2019-02-11T00:02:29.274Z,0.40
2019-02-11T00:06:46.085Z,0.20
2019-02-11T00:11:02.702Z,0.30
2019-02-11T00:15:19.598Z,0.30
2019-02-11T00:19:36.056Z,0.33
2019-02-11T00:23:52.576Z,0.40
2019-02-11T00:28:09.091Z,0.30
2019-02-11T00:32:25.600Z,0.47
2019-02-11T00:36:42.117Z,0.40
2019-02-11T00:40:58.875Z,0.47
2019-02-11T00:45:15.697Z,0.60
2019-02-11T00:49:32.142Z,0.40
2019-02-11T00:53:48.590Z,0.50
2019-02-11T00:58:05.089Z,0.50
2019-02-11T01:02:21.580Z,0.60
2019-02-11T01:06:38.044Z,0.50
2019-02-11T01:10:54.551Z,0.63
2019-02-11T01:15:11.334Z,0.50
2019-02-11T01:19:27.896Z,0.77
2019-02-11T01:23:44.409Z,0.63
2019-02-11T01:28:01.022Z,0.53
2019-02-11T01:32:17.508Z,0.70
2019-02-11T01:36:33.946Z,0.50
2019-02-11T01:40:50.815Z,0.73
2019-02-11T01:45:09.782Z,0.60
2019-02-11T01:49:26.250Z,0.60
2019-02-11T01:53:42.939Z,0.50
2019-02-11T01:57:59.417Z,0.43
2019-02-11T02:02:15.909Z,0.40
2019-02-11T02:06:32.773Z,0.50
2019-02-11T02:10:49.249Z,0.40
2019-02-11T02:15:07.862Z,0.50
2019-02-11T02:19:24.337Z,0.40
2019-02-11T02:23:41.221Z,0.37
2019-02-11T02:27:57.941Z,0.30
2019-02-11T02:32:14.489Z,0.30
2019-02-11T02:36:31.026Z,0.50
2019-02-11T02:40:47.629Z,0.40
2019-02-11T02:45:06.297Z,0.30
2019-02-11T02:49:22.804Z,0.30
2019-02-11T02:53:39.312Z,0.30
2019-02-11T02:57:56.062Z,0.57
2019-02-11T03:02:15.117Z,0.60
2019-02-11T03:06:31.665Z,0.60
2019-02-11T03:10:48.128Z,0.40
2019-02-11T03:15:07.459Z,0.60
2019-02-11T03:19:23.956Z,0.70
2019-02-11T03:23:40.457Z,0.67
2019-02-11T03:27:59.941Z,0.70
2019-02-11T03:32:16.378Z,0.97
2019-02-11T03:36:32.877Z,0.70
2019-02-11T03:40:53.600Z,0.80
2019-02-11T03:45:11.916Z,0.90
2019-02-11T03:49:28.641Z,0.80
2019-02-11T03:53:49.133Z,0.90
2019-02-11T03:58:05.582Z,0.80
2019-02-11T04:02:22.134Z,1.27
2019-02-11T04:06:41.161Z,1.40
2019-02-11T04:10:57.605Z,1.23
2019-02-11T04:15:14.231Z,1.80
2019-02-11T04:19:30.699Z,1.70
2019-02-11T04:23:48.511Z,1.73
2019-02-11T04:28:05.013Z,2.30
2019-02-11T04:32:21.526Z,2.10
2019-02-11T04:36:38.024Z,2.60
2019-02-11T04:40:55.536Z,2.53
2019-02-11T04:45:12.182Z,2.80
2019-02-11T04:49:28.721Z,2.80
2019-02-11T04:53:45.202Z,2.40
2019-02-11T04:58:08.477Z,2.20
2019-02-11T05:02:25.325Z,2.63
2019-02-11T05:06:41.843Z,2.20
2019-02-11T05:11:00.667Z,2.67
2019-02-11T05:15:17.139Z,2.40
2019-02-11T05:19:33.630Z,2.60
2019-02-11T05:23:50.153Z,2.00
2019-02-11T05:28:06.675Z,3.07
2019-02-11T05:32:23.166Z,2.80
2019-02-11T05:36:39.581Z,2.53
2019-02-11T05:40:56.091Z,2.90
2019-02-11T05:45:12.635Z,3.13
2019-02-11T05:49:29.140Z,3.23
2019-02-11T05:53:47.198Z,2.70
2019-02-11T05:58:03.672Z,3.00
2019-02-11T06:02:21.834Z,3.00
2019-02-11T06:06:38.415Z,2.80
2019-02-11T06:10:54.894Z,3.72
2019-02-11T06:15:11.475Z,2.80
2019-02-11T06:19:27.922Z,3.70
2019-02-11T06:23:44.501Z,3.00
2019-02-11T06:28:01.336Z,3.47
2019-02-11T06:32:18.017Z,3.00
2019-02-11T06:36:34.492Z,2.90
2019-02-11T06:40:50.976Z,2.97
2019-02-11T06:45:13.084Z,3.50
2019-02-11T06:49:27.421Z,3.43
2019-02-11T06:53:43.931Z,2.97
2019-02-11T06:58:00.590Z,3.67
2019-02-11T07:02:17.188Z,2.93
2019-02-11T07:06:33.669Z,3.23
2019-02-11T07:10:55.447Z,3.17
2019-02-11T07:15:21.290Z,3.20
2019-02-11T07:19:30.874Z,3.73
2019-02-11T07:23:51.546Z,3.60
2019-02-11T07:28:08.037Z,3.60
2019-02-11T07:32:26.446Z,3.40
2019-02-11T07:36:42.998Z,3.90
2019-02-11T07:40:59.443Z,3.60
2019-02-11T07:45:17.849Z,2.90
2019-02-11T07:49:34.322Z,2.83
2019-02-11T07:53:50.807Z,3.00
2019-02-11T07:58:07.338Z,3.00
2019-02-11T08:02:23.996Z,2.83
2019-02-11T08:06:40.480Z,2.53
2019-02-11T08:10:56.981Z,2.90
2019-02-11T08:15:13.503Z,2.77
2019-02-11T08:19:30.329Z,3.10
2019-02-11T08:23:46.931Z,2.13
2019-02-11T08:28:03.671Z,2.33
2019-02-11T08:32:20.171Z,1.80
2019-02-11T08:36:36.713Z,1.97
2019-02-11T08:40:53.219Z,1.73
2019-02-11T08:45:09.923Z,1.83
2019-02-11T08:49:26.673Z,1.60
2019-02-11T08:53:43.420Z,1.50
2019-02-11T08:58:01.925Z,1.53
2019-02-11T09:02:18.635Z,2.30
2019-02-11T09:06:35.069Z,2.00
2019-02-11T09:10:51.879Z,2.00
2019-02-11T09:15:10.396Z,2.03
2019-02-11T09:19:26.879Z,1.80
2019-02-11T09:23:43.406Z,1.90
2019-02-11T09:27:59.872Z,1.47
2019-02-11T09:32:18.172Z,2.00
2019-02-11T09:36:34.771Z,1.77
2019-02-11T09:40:51.381Z,1.70
2019-02-11T09:45:25.529Z,1.30
2019-02-11T09:49:42.059Z,1.40
2019-02-11T09:53:58.626Z,1.77
2019-02-11T09:58:15.858Z,2.03
2019-02-11T10:02:32.295Z,1.73
2019-02-11T10:06:48.738Z,1.30
2019-02-11T10:11:05.230Z,1.50
2019-02-11T10:15:22.199Z,1.20
2019-02-11T10:19:38.693Z,1.40
2019-02-11T10:23:55.500Z,1.60
2019-02-11T10:28:12.088Z,1.33
2019-02-11T10:32:28.886Z,1.70
2019-02-11T10:36:45.474Z,1.50
2019-02-11T10:41:01.989Z,1.20
2019-02-11T10:45:18.607Z,1.73
2019-02-11T10:49:35.075Z,3.73
2019-02-11T10:53:51.528Z,1.17
2019-02-11T10:58:08.133Z,1.40
2019-02-11T11:02:24.939Z,1.73
2019-02-11T11:06:41.451Z,1.60
2019-02-11T11:10:58.534Z,1.10
2019-02-11T11:15:15.230Z,1.30
2019-02-11T11:19:31.848Z,1.30
2019-02-11T11:23:48.478Z,1.57
2019-02-11T11:28:05.156Z,1.40
2019-02-11T11:32:28.121Z,1.40
2019-02-11T11:36:44.569Z,1.20
2019-02-11T11:41:01.406Z,1.60
2019-02-11T11:45:18.818Z,1.50
2019-02-11T11:49:35.323Z,1.87
2019-02-11T11:53:51.747Z,1.37
2019-02-11T11:58:08.659Z,1.30
2019-02-11T12:02:25.088Z,1.23
2019-02-11T12:06:41.613Z,1.20
2019-02-11T12:10:58.128Z,0.90
2019-02-11T12:15:17.962Z,1.67
2019-02-11T12:19:34.456Z,1.47
2019-02-11T12:23:50.977Z,1.10
2019-02-11T12:28:07.556Z,1.30
2019-02-11T12:32:24.359Z,0.90
2019-02-11T12:36:40.923Z,1.00
2019-02-11T12:40:57.438Z,0.97
2019-02-11T12:45:16.932Z,1.00
2019-02-11T12:49:33.422Z,1.27
2019-02-11T12:53:50.174Z,1.40
2019-02-11T12:58:06.681Z,1.97
2019-02-11T13:02:23.511Z,1.27
2019-02-11T13:06:41.023Z,1.30
2019-02-11T13:10:57.569Z,1.20
2019-02-11T13:15:33.671Z,1.50
2019-02-11T13:19:33.152Z,1.40
2019-02-11T13:23:49.617Z,1.50
2019-02-11T13:28:06.170Z,2.00
2019-02-11T13:32:22.699Z,1.50
2019-02-11T13:36:39.273Z,1.40
2019-02-11T13:40:55.928Z,1.30
2019-02-11T13:45:18.529Z,1.47
2019-02-11T13:49:35.072Z,1.30
2019-02-11T13:53:51.643Z,1.63
2019-02-11T13:58:08.840Z,1.30
2019-02-11T14:02:25.453Z,1.60
2019-02-11T14:06:41.979Z,1.77
2019-02-11T14:10:58.637Z,2.40
2019-02-11T14:15:20.029Z,2.77
2019-02-11T14:19:33.565Z,2.77
2019-02-11T14:23:50.210Z,2.60
2019-02-11T14:28:06.914Z,2.90
2019-02-11T14:32:23.420Z,3.10
2019-02-11T14:36:43.085Z,2.00
2019-02-11T14:40:58.474Z,2.40
2019-02-11T14:45:17.810Z,2.60
2019-02-11T14:49:34.368Z,2.00
2019-02-11T14:53:51.192Z,2.77
2019-02-11T14:58:08.453Z,2.43
2019-02-11T15:02:25.042Z,2.43
2019-02-11T15:06:41.579Z,2.40
2019-02-11T15:10:58.398Z,2.27
2019-02-11T15:15:15.210Z,2.60
2019-02-11T15:19:31.928Z,1.47
2019-02-11T15:23:48.506Z,1.13
2019-02-11T15:28:05.293Z,1.97
2019-02-11T15:32:21.813Z,1.80
2019-02-11T15:36:41.231Z,2.00
2019-02-11T15:40:57.702Z,2.20
2019-02-11T15:45:15.154Z,2.83
2019-02-11T15:49:31.657Z,1.53
2019-02-11T15:53:48.193Z,2.10
2019-02-11T15:58:05.116Z,2.77
2019-02-11T16:02:21.629Z,2.40
2019-02-11T16:06:38.388Z,1.80
2019-02-11T16:11:01.173Z,2.30
2019-02-11T16:15:13.219Z,2.17
2019-02-11T16:19:32.551Z,1.40
2019-02-11T16:23:49.014Z,1.00
2019-02-11T16:28:05.678Z,1.20
2019-02-11T16:32:24.393Z,1.13
2019-02-11T16:36:41.369Z,1.43
2019-02-11T16:40:57.914Z,2.00
2019-02-11T16:45:14.731Z,1.43
2019-02-11T16:49:32.436Z,1.30
2019-02-11T16:53:51.114Z,1.40
2019-02-11T16:58:07.928Z,1.70
2019-02-11T17:02:24.741Z,2.37
2019-02-11T17:06:42.635Z,1.73
2019-02-11T17:11:00.988Z,1.70
2019-02-11T17:15:19.019Z,1.90
2019-02-11T17:19:38.219Z,1.90
2019-02-11T17:23:57.243Z,1.93
2019-02-11T17:28:13.945Z,2.07
2019-02-11T17:32:30.599Z,2.20
2019-02-11T17:36:47.108Z,1.90
2019-02-11T17:41:03.624Z,2.00
2019-02-11T17:45:29.769Z,3.00
2019-02-11T17:49:46.367Z,2.63
2019-02-11T17:54:03.207Z,2.10
2019-02-11T17:58:20.062Z,2.20
2019-02-11T18:02:36.660Z,2.80
2019-02-11T18:06:53.145Z,2.13
2019-02-11T18:11:10.578Z,2.37
2019-02-11T18:15:37.479Z,3.20
2019-02-11T18:19:54.069Z,2.90
2019-02-11T18:24:10.592Z,2.90
2019-02-11T18:28:28.245Z,3.00
2019-02-11T18:32:44.849Z,2.63
2019-02-11T18:37:01.565Z,2.80
2019-02-11T18:41:18.393Z,2.93
2019-02-11T18:45:38.182Z,3.37
2019-02-11T18:49:54.782Z,2.93
2019-02-11T18:54:12.713Z,2.80
2019-02-11T18:58:31.283Z,2.50
2019-02-11T19:02:49.162Z,2.60
2019-02-11T19:07:06.805Z,2.57
2019-02-11T19:11:24.737Z,2.30
2019-02-11T19:15:41.909Z,2.50
2019-02-11T19:19:58.545Z,2.70
2019-02-11T19:24:17.357Z,2.57
2019-02-11T19:28:35.305Z,3.27
2019-02-11T19:32:55.298Z,3.07
2019-02-11T19:37:16.090Z,4.07
2019-02-11T19:41:33.226Z,3.63
2019-02-11T19:45:50.020Z,2.67
2019-02-11T19:50:12.530Z,3.27
2019-02-11T19:54:31.858Z,2.60
2019-02-11T19:58:50.672Z,2.60
2019-02-11T20:03:10.237Z,3.07
2019-02-11T20:07:27.518Z,2.63
2019-02-11T20:11:45.243Z,2.93
2019-02-11T20:16:02.077Z,2.50
2019-02-11T20:20:20.915Z,2.20
2019-02-11T20:24:38.585Z,2.70
2019-02-11T20:28:59.548Z,2.07
2019-02-11T20:33:16.866Z,2.77
2019-02-11T20:37:33.472Z,2.93
2019-02-11T20:41:50.094Z,2.23
2019-02-11T20:46:07.692Z,3.20
2019-02-11T20:50:25.365Z,3.03
2019-02-11T20:54:42.200Z,2.90
2019-02-11T20:58:58.714Z,2.87
2019-02-11T21:03:15.329Z,2.87
2019-02-11T21:07:32.858Z,3.37
2019-02-11T21:11:49.645Z,2.77
2019-02-11T21:16:07.214Z,2.85
2019-02-11T21:20:39.434Z,2.60
2019-02-11T21:24:55.919Z,2.80
2019-02-11T21:29:12.772Z,2.10
2019-02-11T21:33:29.267Z,3.50
2019-02-11T21:37:45.878Z,4.13
2019-02-11T21:42:02.731Z,2.80
2019-02-11T21:46:19.469Z,4.13
2019-02-11T21:50:35.935Z,4.80
2019-02-11T21:54:52.408Z,3.07
2019-02-11T21:59:08.971Z,3.37
2019-02-11T22:03:25.492Z,3.27
2019-02-11T22:07:41.954Z,2.50
2019-02-11T22:11:58.403Z,2.17
2019-02-11T22:16:14.905Z,1.60
2019-02-11T22:20:34.795Z,1.90
2019-02-11T22:24:49.701Z,2.20
2019-02-11T22:29:06.201Z,2.33
2019-02-11T22:33:24.238Z,2.40
2019-02-11T22:37:41.138Z,2.00
2019-02-11T22:41:57.869Z,2.37
2019-02-11T22:46:14.398Z,1.43
2019-02-11T22:50:30.839Z,2.80
2019-02-11T22:54:47.318Z,2.33
2019-02-11T22:59:05.133Z,3.27
2019-02-11T23:03:21.824Z,2.70
2019-02-11T23:07:40.074Z,2.97
2019-02-11T23:11:56.787Z,2.17
2019-02-11T23:16:13.652Z,2.83
2019-02-11T23:20:30.137Z,2.03
2019-02-11T23:24:46.606Z,2.27
2019-02-11T23:29:03.162Z,2.60
2019-02-11T23:33:20.181Z,2.23
2019-02-11T23:37:36.709Z,2.73
2019-02-11T23:41:53.215Z,1.80
2019-02-11T23:46:09.718Z,2.47
2019-02-11T23:50:26.247Z,2.00
2019-02-11T23:54:43.111Z,2.00
2019-02-11T23:58:59.899Z,2.10
